sensor_id;sensor_type;location;lat;lon;timestamp;P1;durP1;ratioP1;P2;durP2;ratioP2
6089;SDS011;3073;42.660;23.316;2023-05-17T00:01:27;19.27;;;10.83;;
6089;SDS011;3073;42.660;23.316;2023-05-17T00:03:53;18.30;;;11.57;;
6089;SDS011;3073;42.660;23.316;2023-05-17T00:06:20;24.87;;;11.90;;
6089;SDS011;3073;42.660;23.316;2023-05-17T00:08:47;18.90;;;11.50;;
6089;SDS011;3073;42.660;23.316;2023-05-17T00:11:16;22.23;;;11.20;;
6089;SDS011;3073;42.660;23.316;2023-05-17T00:13:44;15.70;;;9.90;;
6089;SDS011;3073;42.660;23.316;2023-05-17T00:16:11;17.83;;;10.70;;
6089;SDS011;3073;42.660;23.316;2023-05-17T00:18:38;21.30;;;10.73;;
6089;SDS011;3073;42.660;23.316;2023-05-17T00:21:05;19.97;;;11.60;;
6089;SDS011;3073;42.660;23.316;2023-05-17T00:23:31;16.73;;;10.10;;
6089;SDS011;3073;42.660;23.316;2023-05-17T00:25:58;20.57;;;11.33;;
6089;SDS011;3073;42.660;23.316;2023-05-17T00:28:25;17.00;;;10.27;;
6089;SDS011;3073;42.660;23.316;2023-05-17T00:30:54;18.03;;;9.83;;
6089;SDS011;3073;42.660;23.316;2023-05-17T00:33:20;26.57;;;11.37;;
6089;SDS011;3073;42.660;23.316;2023-05-17T00:35:47;18.03;;;10.63;;
6089;SDS011;3073;42.660;23.316;2023-05-17T00:38:14;24.13;;;10.93;;
6089;SDS011;3073;42.660;23.316;2023-05-17T00:40:41;16.47;;;11.20;;
6089;SDS011;3073;42.660;23.316;2023-05-17T00:43:08;22.20;;;12.17;;
6089;SDS011;3073;42.660;23.316;2023-05-17T00:45:35;19.43;;;12.20;;
6089;SDS011;3073;42.660;23.316;2023-05-17T00:48:04;23.63;;;13.53;;
6089;SDS011;3073;42.660;23.316;2023-05-17T00:50:31;22.70;;;11.50;;
6089;SDS011;3073;42.660;23.316;2023-05-17T00:52:58;19.40;;;11.60;;
6089;SDS011;3073;42.660;23.316;2023-05-17T00:55:26;27.17;;;12.73;;
6089;SDS011;3073;42.660;23.316;2023-05-17T00:58:00;22.80;;;11.73;;
6089;SDS011;3073;42.660;23.316;2023-05-17T01:00:27;17.23;;;10.90;;
6089;SDS011;3073;42.660;23.316;2023-05-17T01:02:54;21.00;;;10.63;;
6089;SDS011;3073;42.660;23.316;2023-05-17T01:05:23;24.83;;;10.90;;
6089;SDS011;3073;42.660;23.316;2023-05-17T01:07:52;17.87;;;11.30;;
6089;SDS011;3073;42.660;23.316;2023-05-17T01:10:19;18.30;;;10.83;;
6089;SDS011;3073;42.660;23.316;2023-05-17T01:12:49;26.43;;;10.80;;
6089;SDS011;3073;42.660;23.316;2023-05-17T01:15:26;16.30;;;11.13;;
6089;SDS011;3073;42.660;23.316;2023-05-17T01:17:59;20.20;;;10.30;;
6089;SDS011;3073;42.660;23.316;2023-05-17T01:20:40;15.70;;;10.20;;
6089;SDS011;3073;42.660;23.316;2023-05-17T01:23:12;16.50;;;10.80;;
6089;SDS011;3073;42.660;23.316;2023-05-17T01:25:53;15.23;;;10.23;;
6089;SDS011;3073;42.660;23.316;2023-05-17T01:28:25;18.13;;;8.90;;
6089;SDS011;3073;42.660;23.316;2023-05-17T01:30:55;21.07;;;9.77;;
6089;SDS011;3073;42.660;23.316;2023-05-17T01:33:24;20.33;;;9.90;;
6089;SDS011;3073;42.660;23.316;2023-05-17T01:35:51;17.43;;;9.37;;
6089;SDS011;3073;42.660;23.316;2023-05-17T01:38:18;21.97;;;10.00;;
6089;SDS011;3073;42.660;23.316;2023-05-17T01:40:45;22.17;;;8.83;;
6089;SDS011;3073;42.660;23.316;2023-05-17T01:43:20;13.53;;;7.80;;
6089;SDS011;3073;42.660;23.316;2023-05-17T01:45:55;13.07;;;8.70;;
6089;SDS011;3073;42.660;23.316;2023-05-17T01:48:28;11.00;;;7.60;;
6089;SDS011;3073;42.660;23.316;2023-05-17T01:51:00;11.70;;;7.70;;
6089;SDS011;3073;42.660;23.316;2023-05-17T01:53:31;25.77;;;7.73;;
6089;SDS011;3073;42.660;23.316;2023-05-17T01:56:03;18.13;;;8.07;;
6089;SDS011;3073;42.660;23.316;2023-05-17T01:58:35;17.90;;;8.27;;
6089;SDS011;3073;42.660;23.316;2023-05-17T02:01:11;14.07;;;8.97;;
6089;SDS011;3073;42.660;23.316;2023-05-17T02:03:39;11.97;;;8.77;;
6089;SDS011;3073;42.660;23.316;2023-05-17T02:06:06;14.53;;;8.23;;
6089;SDS011;3073;42.660;23.316;2023-05-17T02:08:33;10.20;;;7.57;;
6089;SDS011;3073;42.660;23.316;2023-05-17T02:11:00;20.63;;;9.73;;
6089;SDS011;3073;42.660;23.316;2023-05-17T02:13:27;17.33;;;7.93;;
6089;SDS011;3073;42.660;23.316;2023-05-17T02:15:54;9.47;;;7.53;;
6089;SDS011;3073;42.660;23.316;2023-05-17T02:18:26;14.40;;;6.83;;
6089;SDS011;3073;42.660;23.316;2023-05-17T02:20:53;18.23;;;8.00;;
6089;SDS011;3073;42.660;23.316;2023-05-17T02:23:20;15.60;;;7.50;;
6089;SDS011;3073;42.660;23.316;2023-05-17T02:25:49;18.93;;;7.40;;
6089;SDS011;3073;42.660;23.316;2023-05-17T02:28:16;18.20;;;7.77;;
6089;SDS011;3073;42.660;23.316;2023-05-17T02:30:42;15.33;;;7.40;;
6089;SDS011;3073;42.660;23.316;2023-05-17T02:33:10;16.07;;;7.83;;
6089;SDS011;3073;42.660;23.316;2023-05-17T02:35:38;20.17;;;7.90;;
6089;SDS011;3073;42.660;23.316;2023-05-17T02:38:05;20.37;;;9.30;;
6089;SDS011;3073;42.660;23.316;2023-05-17T02:40:32;16.73;;;9.73;;
6089;SDS011;3073;42.660;23.316;2023-05-17T02:42:59;15.27;;;9.17;;
6089;SDS011;3073;42.660;23.316;2023-05-17T02:45:25;15.83;;;9.43;;
6089;SDS011;3073;42.660;23.316;2023-05-17T02:47:52;26.00;;;9.37;;
6089;SDS011;3073;42.660;23.316;2023-05-17T02:50:19;18.27;;;10.10;;
6089;SDS011;3073;42.660;23.316;2023-05-17T02:52:54;16.60;;;9.53;;
6089;SDS011;3073;42.660;23.316;2023-05-17T02:55:20;19.10;;;10.10;;
6089;SDS011;3073;42.660;23.316;2023-05-17T02:57:47;27.83;;;10.70;;
6089;SDS011;3073;42.660;23.316;2023-05-17T03:00:14;20.40;;;9.80;;
6089;SDS011;3073;42.660;23.316;2023-05-17T03:02:42;13.30;;;8.53;;
6089;SDS011;3073;42.660;23.316;2023-05-17T03:05:09;18.80;;;9.47;;
6089;SDS011;3073;42.660;23.316;2023-05-17T03:07:36;15.20;;;9.20;;
6089;SDS011;3073;42.660;23.316;2023-05-17T03:10:04;16.20;;;9.53;;
6089;SDS011;3073;42.660;23.316;2023-05-17T03:12:32;26.00;;;10.27;;
6089;SDS011;3073;42.660;23.316;2023-05-17T03:14:58;15.67;;;9.87;;
6089;SDS011;3073;42.660;23.316;2023-05-17T03:17:25;18.90;;;9.97;;
6089;SDS011;3073;42.660;23.316;2023-05-17T03:19:52;18.87;;;10.10;;
6089;SDS011;3073;42.660;23.316;2023-05-17T03:22:19;18.10;;;10.50;;
6089;SDS011;3073;42.660;23.316;2023-05-17T03:24:46;16.67;;;9.17;;
6089;SDS011;3073;42.660;23.316;2023-05-17T03:27:14;20.27;;;9.10;;
6089;SDS011;3073;42.660;23.316;2023-05-17T03:29:41;16.07;;;8.53;;
6089;SDS011;3073;42.660;23.316;2023-05-17T03:32:08;13.47;;;8.87;;
6089;SDS011;3073;42.660;23.316;2023-05-17T03:34:34;18.20;;;9.47;;
6089;SDS011;3073;42.660;23.316;2023-05-17T03:37:01;23.83;;;11.87;;
6089;SDS011;3073;42.660;23.316;2023-05-17T03:39:28;24.10;;;11.80;;
6089;SDS011;3073;42.660;23.316;2023-05-17T03:41:55;17.00;;;10.50;;
6089;SDS011;3073;42.660;23.316;2023-05-17T03:44:23;26.97;;;13.23;;
6089;SDS011;3073;42.660;23.316;2023-05-17T03:46:50;26.87;;;12.17;;
6089;SDS011;3073;42.660;23.316;2023-05-17T03:49:17;20.60;;;12.50;;
6089;SDS011;3073;42.660;23.316;2023-05-17T03:51:44;23.97;;;12.47;;
6089;SDS011;3073;42.660;23.316;2023-05-17T03:54:11;27.20;;;12.27;;
6089;SDS011;3073;42.660;23.316;2023-05-17T03:56:38;28.40;;;13.10;;
6089;SDS011;3073;42.660;23.316;2023-05-17T03:59:07;21.10;;;11.90;;
6089;SDS011;3073;42.660;23.316;2023-05-17T04:01:35;33.83;;;14.50;;
6089;SDS011;3073;42.660;23.316;2023-05-17T04:04:02;25.63;;;12.93;;
6089;SDS011;3073;42.660;23.316;2023-05-17T04:06:30;24.30;;;12.83;;
6089;SDS011;3073;42.660;23.316;2023-05-17T04:08:57;28.00;;;13.90;;
6089;SDS011;3073;42.660;23.316;2023-05-17T04:11:24;24.00;;;14.13;;
6089;SDS011;3073;42.660;23.316;2023-05-17T04:13:58;20.90;;;13.20;;
6089;SDS011;3073;42.660;23.316;2023-05-17T04:16:26;48.10;;;13.60;;
6089;SDS011;3073;42.660;23.316;2023-05-17T04:18:59;52.83;;;14.40;;
6089;SDS011;3073;42.660;23.316;2023-05-17T04:21:26;71.17;;;16.47;;
6089;SDS011;3073;42.660;23.316;2023-05-17T04:23:53;39.43;;;13.67;;
6089;SDS011;3073;42.660;23.316;2023-05-17T04:26:20;40.07;;;13.13;;
6089;SDS011;3073;42.660;23.316;2023-05-17T04:28:47;23.37;;;12.93;;
6089;SDS011;3073;42.660;23.316;2023-05-17T04:31:14;20.80;;;11.30;;
6089;SDS011;3073;42.660;23.316;2023-05-17T04:33:42;26.97;;;13.37;;
6089;SDS011;3073;42.660;23.316;2023-05-17T04:36:11;30.03;;;14.93;;
6089;SDS011;3073;42.660;23.316;2023-05-17T04:38:38;22.90;;;12.07;;
6089;SDS011;3073;42.660;23.316;2023-05-17T04:41:05;25.10;;;14.00;;
6089;SDS011;3073;42.660;23.316;2023-05-17T04:43:33;24.40;;;14.23;;
6089;SDS011;3073;42.660;23.316;2023-05-17T04:46:02;25.50;;;14.70;;
6089;SDS011;3073;42.660;23.316;2023-05-17T04:48:29;23.27;;;13.90;;
6089;SDS011;3073;42.660;23.316;2023-05-17T04:50:59;23.43;;;14.30;;
6089;SDS011;3073;42.660;23.316;2023-05-17T04:53:27;23.67;;;13.30;;
6089;SDS011;3073;42.660;23.316;2023-05-17T04:55:54;29.93;;;14.07;;
6089;SDS011;3073;42.660;23.316;2023-05-17T04:58:21;23.07;;;13.90;;
6089;SDS011;3073;42.660;23.316;2023-05-17T05:00:49;27.67;;;13.07;;
6089;SDS011;3073;42.660;23.316;2023-05-17T05:03:16;22.27;;;12.10;;
6089;SDS011;3073;42.660;23.316;2023-05-17T05:05:43;23.63;;;15.80;;
6089;SDS011;3073;42.660;23.316;2023-05-17T05:08:09;21.93;;;14.33;;
6089;SDS011;3073;42.660;23.316;2023-05-17T05:10:38;20.70;;;13.40;;
6089;SDS011;3073;42.660;23.316;2023-05-17T05:13:04;22.07;;;13.47;;
6089;SDS011;3073;42.660;23.316;2023-05-17T05:15:31;22.77;;;14.77;;
6089;SDS011;3073;42.660;23.316;2023-05-17T05:17:58;26.70;;;14.47;;
6089;SDS011;3073;42.660;23.316;2023-05-17T05:20:25;20.30;;;13.07;;
6089;SDS011;3073;42.660;23.316;2023-05-17T05:22:51;22.87;;;12.20;;
6089;SDS011;3073;42.660;23.316;2023-05-17T05:25:18;26.67;;;13.87;;
6089;SDS011;3073;42.660;23.316;2023-05-17T05:27:47;22.90;;;12.73;;
6089;SDS011;3073;42.660;23.316;2023-05-17T05:30:14;24.37;;;12.83;;
6089;SDS011;3073;42.660;23.316;2023-05-17T05:32:46;26.73;;;12.57;;
6089;SDS011;3073;42.660;23.316;2023-05-17T05:35:14;28.80;;;13.17;;
6089;SDS011;3073;42.660;23.316;2023-05-17T05:37:41;22.13;;;12.90;;
6089;SDS011;3073;42.660;23.316;2023-05-17T05:40:08;24.43;;;12.70;;
6089;SDS011;3073;42.660;23.316;2023-05-17T05:42:35;21.03;;;11.20;;
6089;SDS011;3073;42.660;23.316;2023-05-17T05:45:04;23.00;;;12.37;;
6089;SDS011;3073;42.660;23.316;2023-05-17T05:47:32;21.90;;;10.47;;
6089;SDS011;3073;42.660;23.316;2023-05-17T05:49:59;24.33;;;11.97;;
6089;SDS011;3073;42.660;23.316;2023-05-17T05:52:26;15.07;;;10.07;;
6089;SDS011;3073;42.660;23.316;2023-05-17T05:54:52;16.30;;;10.37;;
6089;SDS011;3073;42.660;23.316;2023-05-17T05:57:19;14.03;;;9.37;;
6089;SDS011;3073;42.660;23.316;2023-05-17T05:59:46;21.07;;;11.03;;
6089;SDS011;3073;42.660;23.316;2023-05-17T06:02:14;26.80;;;10.90;;
6089;SDS011;3073;42.660;23.316;2023-05-17T06:04:41;18.40;;;9.30;;
6089;SDS011;3073;42.660;23.316;2023-05-17T06:07:08;14.50;;;8.83;;
6089;SDS011;3073;42.660;23.316;2023-05-17T06:09:35;26.10;;;8.67;;
6089;SDS011;3073;42.660;23.316;2023-05-17T06:12:01;13.60;;;9.00;;
6089;SDS011;3073;42.660;23.316;2023-05-17T06:14:28;14.10;;;8.30;;
6089;SDS011;3073;42.660;23.316;2023-05-17T06:16:55;20.43;;;9.00;;
6089;SDS011;3073;42.660;23.316;2023-05-17T06:19:24;22.20;;;9.60;;
6089;SDS011;3073;42.660;23.316;2023-05-17T06:21:50;17.40;;;10.13;;
6089;SDS011;3073;42.660;23.316;2023-05-17T06:24:19;14.57;;;9.70;;
6089;SDS011;3073;42.660;23.316;2023-05-17T06:26:46;17.60;;;9.37;;
6089;SDS011;3073;42.660;23.316;2023-05-17T06:29:13;15.30;;;8.27;;
6089;SDS011;3073;42.660;23.316;2023-05-17T06:31:39;14.57;;;9.30;;
6089;SDS011;3073;42.660;23.316;2023-05-17T06:34:06;19.43;;;9.30;;
6089;SDS011;3073;42.660;23.316;2023-05-17T06:36:35;13.37;;;8.17;;
6089;SDS011;3073;42.660;23.316;2023-05-17T06:39:01;13.53;;;8.53;;
6089;SDS011;3073;42.660;23.316;2023-05-17T06:41:28;18.43;;;9.53;;
6089;SDS011;3073;42.660;23.316;2023-05-17T06:43:55;29.23;;;8.83;;
6089;SDS011;3073;42.660;23.316;2023-05-17T06:46:22;19.80;;;9.07;;
6089;SDS011;3073;42.660;23.316;2023-05-17T06:48:49;12.90;;;8.10;;
6089;SDS011;3073;42.660;23.316;2023-05-17T06:51:15;15.67;;;9.23;;
6089;SDS011;3073;42.660;23.316;2023-05-17T06:53:44;14.27;;;7.40;;
6089;SDS011;3073;42.660;23.316;2023-05-17T06:56:10;17.87;;;7.90;;
6089;SDS011;3073;42.660;23.316;2023-05-17T06:58:38;14.67;;;7.60;;
6089;SDS011;3073;42.660;23.316;2023-05-17T07:01:05;13.70;;;7.23;;
6089;SDS011;3073;42.660;23.316;2023-05-17T07:03:32;15.70;;;7.90;;
6089;SDS011;3073;42.660;23.316;2023-05-17T07:05:59;16.10;;;8.20;;
6089;SDS011;3073;42.660;23.316;2023-05-17T07:08:26;13.67;;;8.87;;
6089;SDS011;3073;42.660;23.316;2023-05-17T07:10:55;20.40;;;9.83;;
6089;SDS011;3073;42.660;23.316;2023-05-17T07:13:21;16.13;;;8.60;;
6089;SDS011;3073;42.660;23.316;2023-05-17T07:15:48;16.30;;;9.27;;
6089;SDS011;3073;42.660;23.316;2023-05-17T07:18:15;15.97;;;9.00;;
6089;SDS011;3073;42.660;23.316;2023-05-17T07:20:42;15.23;;;8.60;;
6089;SDS011;3073;42.660;23.316;2023-05-17T07:23:09;20.73;;;8.60;;
6089;SDS011;3073;42.660;23.316;2023-05-17T07:25:36;16.03;;;8.83;;
6089;SDS011;3073;42.660;23.316;2023-05-17T07:28:05;11.43;;;7.40;;
6089;SDS011;3073;42.660;23.316;2023-05-17T07:30:33;18.90;;;9.00;;
6089;SDS011;3073;42.660;23.316;2023-05-17T07:32:59;16.30;;;8.53;;
6089;SDS011;3073;42.660;23.316;2023-05-17T07:35:26;15.90;;;8.57;;
6089;SDS011;3073;42.660;23.316;2023-05-17T07:37:53;17.00;;;9.00;;
6089;SDS011;3073;42.660;23.316;2023-05-17T07:40:20;17.83;;;8.97;;
6089;SDS011;3073;42.660;23.316;2023-05-17T07:42:47;14.27;;;8.30;;
6089;SDS011;3073;42.660;23.316;2023-05-17T07:45:15;17.73;;;8.40;;
6089;SDS011;3073;42.660;23.316;2023-05-17T07:47:42;22.50;;;8.67;;
6089;SDS011;3073;42.660;23.316;2023-05-17T07:50:09;16.20;;;8.90;;
6089;SDS011;3073;42.660;23.316;2023-05-17T07:52:36;21.70;;;8.50;;
6089;SDS011;3073;42.660;23.316;2023-05-17T07:55:03;17.20;;;9.33;;
6089;SDS011;3073;42.660;23.316;2023-05-17T07:57:31;16.77;;;7.90;;
6089;SDS011;3073;42.660;23.316;2023-05-17T07:59:58;15.50;;;9.47;;
6089;SDS011;3073;42.660;23.316;2023-05-17T08:02:26;15.93;;;8.27;;
6089;SDS011;3073;42.660;23.316;2023-05-17T08:04:53;13.83;;;6.77;;
6089;SDS011;3073;42.660;23.316;2023-05-17T08:07:19;17.83;;;9.30;;
6089;SDS011;3073;42.660;23.316;2023-05-17T08:09:46;16.67;;;7.17;;
6089;SDS011;3073;42.660;23.316;2023-05-17T08:12:13;12.37;;;7.40;;
6089;SDS011;3073;42.660;23.316;2023-05-17T08:14:40;14.23;;;9.40;;
6089;SDS011;3073;42.660;23.316;2023-05-17T08:17:06;15.63;;;8.67;;
6089;SDS011;3073;42.660;23.316;2023-05-17T08:19:35;14.97;;;7.10;;
6089;SDS011;3073;42.660;23.316;2023-05-17T08:22:03;15.10;;;7.70;;
6089;SDS011;3073;42.660;23.316;2023-05-17T08:24:30;16.90;;;7.40;;
6089;SDS011;3073;42.660;23.316;2023-05-17T08:26:57;18.80;;;8.20;;
6089;SDS011;3073;42.660;23.316;2023-05-17T08:29:24;17.13;;;8.50;;
6089;SDS011;3073;42.660;23.316;2023-05-17T08:31:52;13.63;;;7.00;;
6089;SDS011;3073;42.660;23.316;2023-05-17T08:34:19;12.30;;;7.27;;
6089;SDS011;3073;42.660;23.316;2023-05-17T08:36:47;16.90;;;7.47;;
6089;SDS011;3073;42.660;23.316;2023-05-17T08:39:14;15.50;;;7.57;;
6089;SDS011;3073;42.660;23.316;2023-05-17T08:41:41;15.77;;;6.73;;
6089;SDS011;3073;42.660;23.316;2023-05-17T08:44:08;15.87;;;6.50;;
6089;SDS011;3073;42.660;23.316;2023-05-17T08:46:38;16.13;;;7.33;;
6089;SDS011;3073;42.660;23.316;2023-05-17T08:49:06;13.33;;;7.50;;
6089;SDS011;3073;42.660;23.316;2023-05-17T08:51:37;14.00;;;7.03;;
6089;SDS011;3073;42.660;23.316;2023-05-17T08:54:07;16.53;;;7.50;;
6089;SDS011;3073;42.660;23.316;2023-05-17T08:56:34;13.40;;;7.00;;
6089;SDS011;3073;42.660;23.316;2023-05-17T08:59:04;12.40;;;6.60;;
6089;SDS011;3073;42.660;23.316;2023-05-17T09:01:34;15.53;;;7.60;;
6089;SDS011;3073;42.660;23.316;2023-05-17T09:04:02;11.73;;;7.70;;
6089;SDS011;3073;42.660;23.316;2023-05-17T09:06:30;13.77;;;7.37;;
6089;SDS011;3073;42.660;23.316;2023-05-17T09:08:58;16.10;;;7.87;;
6089;SDS011;3073;42.660;23.316;2023-05-17T09:11:27;17.03;;;8.37;;
6089;SDS011;3073;42.660;23.316;2023-05-17T09:13:56;14.40;;;7.47;;
6089;SDS011;3073;42.660;23.316;2023-05-17T09:16:28;15.03;;;7.70;;
6089;SDS011;3073;42.660;23.316;2023-05-17T09:18:56;15.90;;;8.37;;
6089;SDS011;3073;42.660;23.316;2023-05-17T09:21:23;15.63;;;8.20;;
6089;SDS011;3073;42.660;23.316;2023-05-17T09:23:51;8.03;;;5.90;;
6089;SDS011;3073;42.660;23.316;2023-05-17T09:26:19;16.57;;;7.87;;
6089;SDS011;3073;42.660;23.316;2023-05-17T09:28:48;21.07;;;7.57;;
6089;SDS011;3073;42.660;23.316;2023-05-17T09:31:16;10.30;;;6.63;;
6089;SDS011;3073;42.660;23.316;2023-05-17T09:33:43;13.33;;;7.10;;
6089;SDS011;3073;42.660;23.316;2023-05-17T09:36:17;17.53;;;7.70;;
6089;SDS011;3073;42.660;23.316;2023-05-17T09:38:51;18.47;;;7.83;;
6089;SDS011;3073;42.660;23.316;2023-05-17T09:41:19;18.73;;;7.87;;
6089;SDS011;3073;42.660;23.316;2023-05-17T09:43:46;14.80;;;7.23;;
6089;SDS011;3073;42.660;23.316;2023-05-17T09:46:14;17.90;;;8.00;;
6089;SDS011;3073;42.660;23.316;2023-05-17T09:48:41;12.90;;;6.93;;
6089;SDS011;3073;42.660;23.316;2023-05-17T09:51:10;13.17;;;7.60;;
6089;SDS011;3073;42.660;23.316;2023-05-17T09:53:37;15.40;;;7.77;;
6089;SDS011;3073;42.660;23.316;2023-05-17T09:56:06;22.70;;;8.40;;
6089;SDS011;3073;42.660;23.316;2023-05-17T09:58:34;15.30;;;7.00;;
6089;SDS011;3073;42.660;23.316;2023-05-17T10:01:03;15.10;;;7.17;;
6089;SDS011;3073;42.660;23.316;2023-05-17T10:03:33;11.63;;;6.00;;
6089;SDS011;3073;42.660;23.316;2023-05-17T10:06:01;30.63;;;7.80;;
6089;SDS011;3073;42.660;23.316;2023-05-17T10:08:31;18.83;;;6.60;;
6089;SDS011;3073;42.660;23.316;2023-05-17T10:11:00;12.20;;;6.50;;
6089;SDS011;3073;42.660;23.316;2023-05-17T10:13:32;10.57;;;6.57;;
6089;SDS011;3073;42.660;23.316;2023-05-17T10:16:01;18.50;;;6.67;;
6089;SDS011;3073;42.660;23.316;2023-05-17T10:18:28;10.00;;;5.37;;
6089;SDS011;3073;42.660;23.316;2023-05-17T10:20:58;14.40;;;7.17;;
6089;SDS011;3073;42.660;23.316;2023-05-17T10:23:26;21.73;;;8.30;;
6089;SDS011;3073;42.660;23.316;2023-05-17T10:25:55;17.87;;;7.83;;
6089;SDS011;3073;42.660;23.316;2023-05-17T10:28:24;15.37;;;6.60;;
6089;SDS011;3073;42.660;23.316;2023-05-17T10:30:53;16.50;;;7.60;;
6089;SDS011;3073;42.660;23.316;2023-05-17T10:33:22;20.87;;;8.07;;
6089;SDS011;3073;42.660;23.316;2023-05-17T10:35:52;15.47;;;6.10;;
6089;SDS011;3073;42.660;23.316;2023-05-17T10:38:22;18.93;;;6.23;;
6089;SDS011;3073;42.660;23.316;2023-05-17T10:40:49;17.07;;;6.80;;
6089;SDS011;3073;42.660;23.316;2023-05-17T10:43:18;18.63;;;7.30;;
6089;SDS011;3073;42.660;23.316;2023-05-17T10:45:46;16.60;;;6.50;;
6089;SDS011;3073;42.660;23.316;2023-05-17T10:48:14;18.40;;;6.90;;
6089;SDS011;3073;42.660;23.316;2023-05-17T10:50:44;11.70;;;6.10;;
6089;SDS011;3073;42.660;23.316;2023-05-17T10:53:11;16.37;;;7.33;;
6089;SDS011;3073;42.660;23.316;2023-05-17T10:55:40;12.83;;;5.97;;
6089;SDS011;3073;42.660;23.316;2023-05-17T10:58:15;14.70;;;6.57;;
6089;SDS011;3073;42.660;23.316;2023-05-17T11:00:43;18.53;;;8.07;;
6089;SDS011;3073;42.660;23.316;2023-05-17T11:03:13;11.80;;;7.30;;
6089;SDS011;3073;42.660;23.316;2023-05-17T11:05:41;13.27;;;7.97;;
6089;SDS011;3073;42.660;23.316;2023-05-17T11:08:13;14.20;;;6.20;;
6089;SDS011;3073;42.660;23.316;2023-05-17T11:13:45;14.40;;;7.00;;
6089;SDS011;3073;42.660;23.316;2023-05-17T11:16:19;13.93;;;6.20;;
6089;SDS011;3073;42.660;23.316;2023-05-17T11:18:51;13.03;;;5.50;;
6089;SDS011;3073;42.660;23.316;2023-05-17T11:21:19;15.20;;;6.27;;
6089;SDS011;3073;42.660;23.316;2023-05-17T11:23:47;15.33;;;5.90;;
6089;SDS011;3073;42.660;23.316;2023-05-17T11:26:22;19.00;;;7.33;;
6089;SDS011;3073;42.660;23.316;2023-05-17T11:28:59;14.43;;;7.07;;
6089;SDS011;3073;42.660;23.316;2023-05-17T11:31:30;22.67;;;8.10;;
6089;SDS011;3073;42.660;23.316;2023-05-17T11:33:57;11.30;;;6.70;;
6089;SDS011;3073;42.660;23.316;2023-05-17T11:36:25;19.50;;;7.57;;
6089;SDS011;3073;42.660;23.316;2023-05-17T11:39:08;17.20;;;6.67;;
6089;SDS011;3073;42.660;23.316;2023-05-17T11:41:39;13.60;;;7.67;;
6089;SDS011;3073;42.660;23.316;2023-05-17T11:44:13;27.17;;;9.07;;
6089;SDS011;3073;42.660;23.316;2023-05-17T11:46:43;14.00;;;7.47;;
6089;SDS011;3073;42.660;23.316;2023-05-17T11:49:10;14.27;;;7.80;;
6089;SDS011;3073;42.660;23.316;2023-05-17T11:51:38;18.87;;;10.30;;
6089;SDS011;3073;42.660;23.316;2023-05-17T11:54:06;26.57;;;9.30;;
6089;SDS011;3073;42.660;23.316;2023-05-17T11:56:33;20.07;;;8.40;;
6089;SDS011;3073;42.660;23.316;2023-05-17T11:59:10;12.23;;;7.10;;
6089;SDS011;3073;42.660;23.316;2023-05-17T12:01:51;17.33;;;8.07;;
6089;SDS011;3073;42.660;23.316;2023-05-17T12:04:27;16.43;;;6.80;;
6089;SDS011;3073;42.660;23.316;2023-05-17T12:07:04;20.37;;;9.30;;
6089;SDS011;3073;42.660;23.316;2023-05-17T12:09:39;17.93;;;7.27;;
6089;SDS011;3073;42.660;23.316;2023-05-17T12:12:09;10.60;;;6.63;;
6089;SDS011;3073;42.660;23.316;2023-05-17T12:14:38;24.33;;;7.10;;
6089;SDS011;3073;42.660;23.316;2023-05-17T12:17:08;19.00;;;7.23;;
6089;SDS011;3073;42.660;23.316;2023-05-17T12:19:41;15.43;;;7.20;;
6089;SDS011;3073;42.660;23.316;2023-05-17T12:22:07;16.20;;;7.33;;
6089;SDS011;3073;42.660;23.316;2023-05-17T12:24:36;13.47;;;6.93;;
6089;SDS011;3073;42.660;23.316;2023-05-17T12:27:04;12.20;;;6.60;;
6089;SDS011;3073;42.660;23.316;2023-05-17T12:29:31;14.77;;;5.53;;
6089;SDS011;3073;42.660;23.316;2023-05-17T12:32:00;14.03;;;5.93;;
6089;SDS011;3073;42.660;23.316;2023-05-17T12:34:27;10.00;;;5.80;;
6089;SDS011;3073;42.660;23.316;2023-05-17T12:36:55;11.57;;;5.90;;
6089;SDS011;3073;42.660;23.316;2023-05-17T12:39:23;17.63;;;7.77;;
6089;SDS011;3073;42.660;23.316;2023-05-17T12:41:50;14.67;;;7.00;;
6089;SDS011;3073;42.660;23.316;2023-05-17T12:44:18;12.20;;;6.33;;
6089;SDS011;3073;42.660;23.316;2023-05-17T12:46:46;12.27;;;7.40;;
6089;SDS011;3073;42.660;23.316;2023-05-17T12:49:19;20.50;;;8.10;;
6089;SDS011;3073;42.660;23.316;2023-05-17T12:51:47;17.87;;;7.83;;
6089;SDS011;3073;42.660;23.316;2023-05-17T12:54:24;18.10;;;8.40;;
6089;SDS011;3073;42.660;23.316;2023-05-17T12:56:52;10.90;;;7.10;;
6089;SDS011;3073;42.660;23.316;2023-05-17T12:59:19;13.50;;;7.40;;
6089;SDS011;3073;42.660;23.316;2023-05-17T13:01:49;12.87;;;7.10;;
6089;SDS011;3073;42.660;23.316;2023-05-17T13:04:19;27.57;;;8.33;;
6089;SDS011;3073;42.660;23.316;2023-05-17T13:06:53;10.03;;;7.20;;
6089;SDS011;3073;42.660;23.316;2023-05-17T13:09:23;11.70;;;7.47;;
6089;SDS011;3073;42.660;23.316;2023-05-17T13:11:52;21.77;;;6.17;;
6089;SDS011;3073;42.660;23.316;2023-05-17T13:14:32;27.73;;;6.67;;
6089;SDS011;3073;42.660;23.316;2023-05-17T13:17:03;14.07;;;6.63;;
6089;SDS011;3073;42.660;23.316;2023-05-17T13:19:32;18.13;;;6.97;;
6089;SDS011;3073;42.660;23.316;2023-05-17T13:22:00;18.77;;;7.70;;
6089;SDS011;3073;42.660;23.316;2023-05-17T13:24:27;16.10;;;6.77;;
6089;SDS011;3073;42.660;23.316;2023-05-17T13:26:56;13.27;;;6.70;;
6089;SDS011;3073;42.660;23.316;2023-05-17T13:29:22;17.60;;;8.47;;
6089;SDS011;3073;42.660;23.316;2023-05-17T13:31:50;11.83;;;6.77;;
6089;SDS011;3073;42.660;23.316;2023-05-17T13:34:17;18.43;;;7.00;;
6089;SDS011;3073;42.660;23.316;2023-05-17T13:36:46;16.83;;;6.10;;
6089;SDS011;3073;42.660;23.316;2023-05-17T13:39:14;13.37;;;6.90;;
6089;SDS011;3073;42.660;23.316;2023-05-17T13:41:42;11.17;;;5.93;;
6089;SDS011;3073;42.660;23.316;2023-05-17T13:44:10;10.30;;;6.33;;
6089;SDS011;3073;42.660;23.316;2023-05-17T13:46:37;19.73;;;5.73;;
6089;SDS011;3073;42.660;23.316;2023-05-17T13:49:04;11.67;;;6.20;;
6089;SDS011;3073;42.660;23.316;2023-05-17T13:51:32;9.90;;;5.10;;
6089;SDS011;3073;42.660;23.316;2023-05-17T13:54:00;14.97;;;5.40;;
6089;SDS011;3073;42.660;23.316;2023-05-17T13:56:27;12.00;;;5.30;;
6089;SDS011;3073;42.660;23.316;2023-05-17T13:58:54;9.73;;;5.10;;
6089;SDS011;3073;42.660;23.316;2023-05-17T14:01:21;10.70;;;5.97;;
6089;SDS011;3073;42.660;23.316;2023-05-17T14:03:48;14.43;;;6.70;;
6089;SDS011;3073;42.660;23.316;2023-05-17T14:06:15;12.03;;;4.27;;
6089;SDS011;3073;42.660;23.316;2023-05-17T14:08:43;10.83;;;5.43;;
6089;SDS011;3073;42.660;23.316;2023-05-17T14:11:11;18.20;;;6.83;;
6089;SDS011;3073;42.660;23.316;2023-05-17T14:13:38;11.10;;;5.87;;
6089;SDS011;3073;42.660;23.316;2023-05-17T14:16:06;8.80;;;4.40;;
6089;SDS011;3073;42.660;23.316;2023-05-17T14:18:33;10.77;;;5.30;;
6089;SDS011;3073;42.660;23.316;2023-05-17T14:21:00;8.50;;;5.30;;
6089;SDS011;3073;42.660;23.316;2023-05-17T14:23:27;10.30;;;4.57;;
6089;SDS011;3073;42.660;23.316;2023-05-17T14:25:54;25.00;;;5.30;;
6089;SDS011;3073;42.660;23.316;2023-05-17T14:28:23;10.97;;;4.90;;
6089;SDS011;3073;42.660;23.316;2023-05-17T14:30:50;13.37;;;4.90;;
6089;SDS011;3073;42.660;23.316;2023-05-17T14:33:17;15.00;;;5.60;;
6089;SDS011;3073;42.660;23.316;2023-05-17T14:35:44;5.73;;;3.77;;
6089;SDS011;3073;42.660;23.316;2023-05-17T14:38:11;11.33;;;4.33;;
6089;SDS011;3073;42.660;23.316;2023-05-17T14:40:38;9.70;;;4.10;;
6089;SDS011;3073;42.660;23.316;2023-05-17T14:43:05;5.70;;;4.00;;
6089;SDS011;3073;42.660;23.316;2023-05-17T14:45:33;8.17;;;3.53;;
6089;SDS011;3073;42.660;23.316;2023-05-17T14:48:00;12.90;;;4.27;;
6089;SDS011;3073;42.660;23.316;2023-05-17T14:50:27;8.20;;;4.13;;
6089;SDS011;3073;42.660;23.316;2023-05-17T14:52:56;11.07;;;4.07;;
6089;SDS011;3073;42.660;23.316;2023-05-17T14:55:23;9.57;;;3.70;;